sensor_id;sensor_type;location;lat;lon;timestamp;P1;durP1;ratioP1;P2;durP2;ratioP2
20110;SDS011;10216;42.658;23.248;2022-07-22T00:00:01;6.23;;;3.90;;
20110;SDS011;10216;42.658;23.248;2022-07-22T00:02:28;5.90;;;3.87;;
20110;SDS011;10216;42.658;23.248;2022-07-22T00:04:54;6.43;;;3.70;;
20110;SDS011;10216;42.658;23.248;2022-07-22T00:07:19;4.30;;;3.70;;
20110;SDS011;10216;42.658;23.248;2022-07-22T00:09:44;7.87;;;3.93;;
20110;SDS011;10216;42.658;23.248;2022-07-22T00:12:10;8.70;;;4.07;;
20110;SDS011;10216;42.658;23.248;2022-07-22T00:14:35;6.70;;;4.40;;
20110;SDS011;10216;42.658;23.248;2022-07-22T00:17:01;5.47;;;3.80;;
20110;SDS011;10216;42.658;23.248;2022-07-22T00:19:26;6.70;;;3.90;;
20110;SDS011;10216;42.658;23.248;2022-07-22T00:21:52;6.07;;;3.87;;
20110;SDS011;10216;42.658;23.248;2022-07-22T00:24:17;4.73;;;4.00;;
20110;SDS011;10216;42.658;23.248;2022-07-22T00:26:43;4.37;;;3.97;;
20110;SDS011;10216;42.658;23.248;2022-07-22T00:29:08;8.57;;;4.40;;
20110;SDS011;10216;42.658;23.248;2022-07-22T00:31:34;4.47;;;3.90;;
20110;SDS011;10216;42.658;23.248;2022-07-22T00:34:00;6.10;;;3.97;;
20110;SDS011;10216;42.658;23.248;2022-07-22T00:36:26;4.77;;;4.10;;
20110;SDS011;10216;42.658;23.248;2022-07-22T00:38:52;6.33;;;3.87;;
20110;SDS011;10216;42.658;23.248;2022-07-22T00:41:18;4.03;;;3.43;;
20110;SDS011;10216;42.658;23.248;2022-07-22T00:46:26;5.47;;;4.10;;
20110;SDS011;10216;42.658;23.248;2022-07-22T00:48:52;5.67;;;3.97;;
20110;SDS011;10216;42.658;23.248;2022-07-22T00:51:19;6.77;;;3.63;;
20110;SDS011;10216;42.658;23.248;2022-07-22T00:53:47;6.30;;;4.40;;
20110;SDS011;10216;42.658;23.248;2022-07-22T00:56:13;5.67;;;4.07;;
20110;SDS011;10216;42.658;23.248;2022-07-22T00:58:39;7.80;;;4.10;;
20110;SDS011;10216;42.658;23.248;2022-07-22T01:01:06;5.73;;;4.73;;
20110;SDS011;10216;42.658;23.248;2022-07-22T01:03:31;5.57;;;4.20;;
20110;SDS011;10216;42.658;23.248;2022-07-22T01:05:57;4.73;;;3.80;;
20110;SDS011;10216;42.658;23.248;2022-07-22T01:08:22;6.33;;;4.50;;
20110;SDS011;10216;42.658;23.248;2022-07-22T01:10:50;6.37;;;4.30;;
20110;SDS011;10216;42.658;23.248;2022-07-22T01:13:16;6.17;;;4.03;;
20110;SDS011;10216;42.658;23.248;2022-07-22T01:15:41;6.57;;;4.60;;
20110;SDS011;10216;42.658;23.248;2022-07-22T01:18:07;6.03;;;4.57;;
20110;SDS011;10216;42.658;23.248;2022-07-22T01:20:34;5.53;;;4.30;;
20110;SDS011;10216;42.658;23.248;2022-07-22T01:22:59;5.43;;;4.37;;
20110;SDS011;10216;42.658;23.248;2022-07-22T01:25:25;6.03;;;4.00;;
20110;SDS011;10216;42.658;23.248;2022-07-22T01:27:50;6.23;;;4.33;;
20110;SDS011;10216;42.658;23.248;2022-07-22T01:30:16;7.33;;;4.30;;
20110;SDS011;10216;42.658;23.248;2022-07-22T01:32:42;4.57;;;4.17;;
20110;SDS011;10216;42.658;23.248;2022-07-22T01:35:07;4.90;;;3.97;;
20110;SDS011;10216;42.658;23.248;2022-07-22T01:37:33;5.10;;;4.20;;
20110;SDS011;10216;42.658;23.248;2022-07-22T01:39:59;7.67;;;4.30;;
20110;SDS011;10216;42.658;23.248;2022-07-22T01:42:24;8.30;;;4.43;;
20110;SDS011;10216;42.658;23.248;2022-07-22T01:44:50;8.63;;;4.90;;
20110;SDS011;10216;42.658;23.248;2022-07-22T01:47:16;6.50;;;4.60;;
20110;SDS011;10216;42.658;23.248;2022-07-22T01:49:41;7.33;;;4.30;;
20110;SDS011;10216;42.658;23.248;2022-07-22T01:52:06;7.17;;;4.67;;
20110;SDS011;10216;42.658;23.248;2022-07-22T01:54:32;8.13;;;4.63;;
20110;SDS011;10216;42.658;23.248;2022-07-22T01:56:57;5.70;;;4.80;;
20110;SDS011;10216;42.658;23.248;2022-07-22T01:59:23;5.63;;;4.43;;
20110;SDS011;10216;42.658;23.248;2022-07-22T02:01:50;9.93;;;5.03;;
20110;SDS011;10216;42.658;23.248;2022-07-22T02:04:16;5.97;;;4.57;;
20110;SDS011;10216;42.658;23.248;2022-07-22T02:06:41;6.63;;;4.73;;
20110;SDS011;10216;42.658;23.248;2022-07-22T02:09:07;11.13;;;5.00;;
20110;SDS011;10216;42.658;23.248;2022-07-22T02:11:32;7.27;;;4.60;;
20110;SDS011;10216;42.658;23.248;2022-07-22T02:13:58;7.30;;;4.80;;
20110;SDS011;10216;42.658;23.248;2022-07-22T02:16:23;7.70;;;4.97;;
20110;SDS011;10216;42.658;23.248;2022-07-22T02:18:49;7.17;;;4.87;;
20110;SDS011;10216;42.658;23.248;2022-07-22T02:21:15;7.50;;;4.80;;
20110;SDS011;10216;42.658;23.248;2022-07-22T02:23:42;9.47;;;5.13;;
20110;SDS011;10216;42.658;23.248;2022-07-22T02:26:07;8.33;;;4.60;;
20110;SDS011;10216;42.658;23.248;2022-07-22T02:28:33;8.37;;;4.50;;
20110;SDS011;10216;42.658;23.248;2022-07-22T02:30:58;9.17;;;4.67;;
20110;SDS011;10216;42.658;23.248;2022-07-22T02:33:24;10.80;;;5.07;;
20110;SDS011;10216;42.658;23.248;2022-07-22T02:35:49;6.37;;;4.97;;
20110;SDS011;10216;42.658;23.248;2022-07-22T02:38:14;9.00;;;4.90;;
20110;SDS011;10216;42.658;23.248;2022-07-22T02:40:40;8.67;;;5.13;;
20110;SDS011;10216;42.658;23.248;2022-07-22T02:43:05;7.87;;;5.00;;
20110;SDS011;10216;42.658;23.248;2022-07-22T02:45:31;8.40;;;4.60;;
20110;SDS011;10216;42.658;23.248;2022-07-22T02:47:57;6.53;;;4.73;;
20110;SDS011;10216;42.658;23.248;2022-07-22T02:50:25;6.57;;;4.90;;
20110;SDS011;10216;42.658;23.248;2022-07-22T02:52:51;9.13;;;5.03;;
20110;SDS011;10216;42.658;23.248;2022-07-22T02:55:17;8.87;;;4.77;;
20110;SDS011;10216;42.658;23.248;2022-07-22T02:57:42;6.43;;;4.70;;
20110;SDS011;10216;42.658;23.248;2022-07-22T03:00:08;5.47;;;4.37;;
20110;SDS011;10216;42.658;23.248;2022-07-22T03:02:36;7.17;;;4.63;;
20110;SDS011;10216;42.658;23.248;2022-07-22T03:05:02;5.73;;;4.60;;
20110;SDS011;10216;42.658;23.248;2022-07-22T03:07:28;7.60;;;4.73;;
20110;SDS011;10216;42.658;23.248;2022-07-22T03:09:54;6.37;;;4.67;;
20110;SDS011;10216;42.658;23.248;2022-07-22T03:12:19;8.23;;;4.93;;
20110;SDS011;10216;42.658;23.248;2022-07-22T03:14:44;7.53;;;4.50;;
20110;SDS011;10216;42.658;23.248;2022-07-22T03:17:10;7.50;;;4.73;;
20110;SDS011;10216;42.658;23.248;2022-07-22T03:19:35;8.57;;;4.93;;
20110;SDS011;10216;42.658;23.248;2022-07-22T03:22:00;6.20;;;4.60;;
20110;SDS011;10216;42.658;23.248;2022-07-22T03:24:26;5.63;;;4.87;;
20110;SDS011;10216;42.658;23.248;2022-07-22T03:26:51;7.00;;;4.27;;
20110;SDS011;10216;42.658;23.248;2022-07-22T03:29:17;5.73;;;4.53;;
20110;SDS011;10216;42.658;23.248;2022-07-22T03:31:42;5.23;;;4.00;;
20110;SDS011;10216;42.658;23.248;2022-07-22T03:34:07;6.77;;;4.40;;
20110;SDS011;10216;42.658;23.248;2022-07-22T03:36:33;5.17;;;3.90;;
20110;SDS011;10216;42.658;23.248;2022-07-22T03:39:08;9.23;;;4.37;;
20110;SDS011;10216;42.658;23.248;2022-07-22T03:41:33;8.00;;;4.20;;
20110;SDS011;10216;42.658;23.248;2022-07-22T03:43:59;7.10;;;4.50;;
20110;SDS011;10216;42.658;23.248;2022-07-22T03:46:24;5.43;;;4.60;;
20110;SDS011;10216;42.658;23.248;2022-07-22T03:48:49;7.57;;;4.27;;
20110;SDS011;10216;42.658;23.248;2022-07-22T03:51:15;5.13;;;4.53;;
20110;SDS011;10216;42.658;23.248;2022-07-22T03:53:41;5.90;;;4.37;;
20110;SDS011;10216;42.658;23.248;2022-07-22T03:56:08;8.80;;;4.27;;
20110;SDS011;10216;42.658;23.248;2022-07-22T03:58:33;8.73;;;4.50;;
20110;SDS011;10216;42.658;23.248;2022-07-22T04:00:59;6.37;;;4.63;;
20110;SDS011;10216;42.658;23.248;2022-07-22T04:03:25;6.80;;;4.50;;
20110;SDS011;10216;42.658;23.248;2022-07-22T04:05:50;6.43;;;4.43;;
20110;SDS011;10216;42.658;23.248;2022-07-22T04:08:16;6.40;;;4.60;;
20110;SDS011;10216;42.658;23.248;2022-07-22T04:10:43;5.03;;;4.20;;
20110;SDS011;10216;42.658;23.248;2022-07-22T04:13:09;6.07;;;4.23;;
20110;SDS011;10216;42.658;23.248;2022-07-22T04:15:34;5.57;;;4.17;;
20110;SDS011;10216;42.658;23.248;2022-07-22T04:18:00;6.97;;;4.27;;
20110;SDS011;10216;42.658;23.248;2022-07-22T04:20:26;5.13;;;4.30;;
20110;SDS011;10216;42.658;23.248;2022-07-22T04:22:51;5.37;;;4.03;;
20110;SDS011;10216;42.658;23.248;2022-07-22T04:25:17;5.60;;;4.50;;
20110;SDS011;10216;42.658;23.248;2022-07-22T04:27:42;6.00;;;4.87;;
20110;SDS011;10216;42.658;23.248;2022-07-22T04:30:08;4.87;;;4.37;;
20110;SDS011;10216;42.658;23.248;2022-07-22T04:32:34;7.43;;;5.13;;
20110;SDS011;10216;42.658;23.248;2022-07-22T04:34:59;11.90;;;6.20;;
20110;SDS011;10216;42.658;23.248;2022-07-22T04:37:24;10.67;;;6.63;;
20110;SDS011;10216;42.658;23.248;2022-07-22T04:39:50;10.73;;;5.83;;
20110;SDS011;10216;42.658;23.248;2022-07-22T04:42:15;16.60;;;6.43;;
20110;SDS011;10216;42.658;23.248;2022-07-22T04:44:40;10.83;;;6.60;;
20110;SDS011;10216;42.658;23.248;2022-07-22T04:47:06;10.63;;;6.23;;
20110;SDS011;10216;42.658;23.248;2022-07-22T04:49:31;11.70;;;6.30;;
20110;SDS011;10216;42.658;23.248;2022-07-22T04:51:57;12.40;;;6.67;;
20110;SDS011;10216;42.658;23.248;2022-07-22T04:54:22;9.80;;;6.43;;
20110;SDS011;10216;42.658;23.248;2022-07-22T04:56:48;12.83;;;6.63;;
20110;SDS011;10216;42.658;23.248;2022-07-22T04:59:14;10.87;;;6.73;;
20110;SDS011;10216;42.658;23.248;2022-07-22T05:01:39;13.17;;;6.87;;
20110;SDS011;10216;42.658;23.248;2022-07-22T05:04:05;11.73;;;6.43;;
20110;SDS011;10216;42.658;23.248;2022-07-22T05:06:30;9.87;;;6.33;;
20110;SDS011;10216;42.658;23.248;2022-07-22T05:08:56;16.07;;;6.63;;
20110;SDS011;10216;42.658;23.248;2022-07-22T05:11:21;14.50;;;6.93;;
20110;SDS011;10216;42.658;23.248;2022-07-22T05:13:46;10.53;;;6.90;;
20110;SDS011;10216;42.658;23.248;2022-07-22T05:16:12;8.47;;;6.73;;
20110;SDS011;10216;42.658;23.248;2022-07-22T05:18:38;12.33;;;7.17;;
20110;SDS011;10216;42.658;23.248;2022-07-22T05:21:03;14.97;;;7.50;;
20110;SDS011;10216;42.658;23.248;2022-07-22T05:23:32;14.97;;;7.30;;
20110;SDS011;10216;42.658;23.248;2022-07-22T05:25:57;14.07;;;6.83;;
20110;SDS011;10216;42.658;23.248;2022-07-22T05:28:23;12.97;;;7.20;;
20110;SDS011;10216;42.658;23.248;2022-07-22T05:30:49;10.50;;;6.67;;
20110;SDS011;10216;42.658;23.248;2022-07-22T05:33:14;17.57;;;7.10;;
20110;SDS011;10216;42.658;23.248;2022-07-22T05:35:39;15.20;;;6.97;;
20110;SDS011;10216;42.658;23.248;2022-07-22T05:38:05;13.63;;;7.17;;
20110;SDS011;10216;42.658;23.248;2022-07-22T05:40:31;10.90;;;6.67;;
20110;SDS011;10216;42.658;23.248;2022-07-22T05:42:57;9.90;;;6.53;;
20110;SDS011;10216;42.658;23.248;2022-07-22T05:45:22;18.90;;;7.37;;
20110;SDS011;10216;42.658;23.248;2022-07-22T05:47:48;13.13;;;6.90;;
20110;SDS011;10216;42.658;23.248;2022-07-22T05:50:13;11.97;;;6.90;;
20110;SDS011;10216;42.658;23.248;2022-07-22T05:52:38;11.93;;;7.10;;
20110;SDS011;10216;42.658;23.248;2022-07-22T05:55:04;11.13;;;6.43;;
20110;SDS011;10216;42.658;23.248;2022-07-22T05:57:31;11.00;;;6.77;;
20110;SDS011;10216;42.658;23.248;2022-07-22T05:59:56;13.50;;;7.30;;
20110;SDS011;10216;42.658;23.248;2022-07-22T06:02:22;15.00;;;7.20;;
20110;SDS011;10216;42.658;23.248;2022-07-22T06:04:47;17.97;;;7.23;;
20110;SDS011;10216;42.658;23.248;2022-07-22T06:07:13;13.50;;;6.83;;
20110;SDS011;10216;42.658;23.248;2022-07-22T06:12:12;17.70;;;6.73;;
20110;SDS011;10216;42.658;23.248;2022-07-22T06:14:38;9.77;;;6.27;;
20110;SDS011;10216;42.658;23.248;2022-07-22T06:17:03;16.37;;;6.47;;
20110;SDS011;10216;42.658;23.248;2022-07-22T06:19:29;12.20;;;6.57;;
20110;SDS011;10216;42.658;23.248;2022-07-22T06:21:55;9.50;;;6.00;;
20110;SDS011;10216;42.658;23.248;2022-07-22T06:24:21;11.87;;;6.20;;
20110;SDS011;10216;42.658;23.248;2022-07-22T06:26:46;11.60;;;5.10;;
20110;SDS011;10216;42.658;23.248;2022-07-22T06:29:11;10.63;;;5.70;;
20110;SDS011;10216;42.658;23.248;2022-07-22T06:31:37;16.13;;;5.87;;
20110;SDS011;10216;42.658;23.248;2022-07-22T06:34:02;4.13;;;3.70;;
20110;SDS011;10216;42.658;23.248;2022-07-22T06:36:31;15.37;;;5.00;;
20110;SDS011;10216;42.658;23.248;2022-07-22T06:38:57;5.93;;;4.03;;
20110;SDS011;10216;42.658;23.248;2022-07-22T06:41:22;5.00;;;3.93;;
20110;SDS011;10216;42.658;23.248;2022-07-22T06:43:48;5.07;;;3.60;;
20110;SDS011;10216;42.658;23.248;2022-07-22T06:46:13;5.37;;;4.27;;
20110;SDS011;10216;42.658;23.248;2022-07-22T06:48:38;9.57;;;4.03;;
20110;SDS011;10216;42.658;23.248;2022-07-22T06:51:04;7.30;;;4.13;;
20110;SDS011;10216;42.658;23.248;2022-07-22T06:53:29;7.50;;;3.77;;
20110;SDS011;10216;42.658;23.248;2022-07-22T06:55:55;5.57;;;3.77;;
20110;SDS011;10216;42.658;23.248;2022-07-22T06:58:20;5.63;;;4.00;;
20110;SDS011;10216;42.658;23.248;2022-07-22T07:00:46;5.00;;;3.78;;
20110;SDS011;10216;42.658;23.248;2022-07-22T07:03:11;6.50;;;4.05;;
20110;SDS011;10216;42.658;23.248;2022-07-22T07:05:37;8.98;;;3.88;;
20110;SDS011;10216;42.658;23.248;2022-07-22T07:08:02;5.35;;;3.95;;
20110;SDS011;10216;42.658;23.248;2022-07-22T07:10:28;7.30;;;3.72;;
20110;SDS011;10216;42.658;23.248;2022-07-22T07:12:56;6.18;;;4.10;;
20110;SDS011;10216;42.658;23.248;2022-07-22T07:15:23;6.32;;;4.28;;
20110;SDS011;10216;42.658;23.248;2022-07-22T07:17:49;5.72;;;4.18;;
20110;SDS011;10216;42.658;23.248;2022-07-22T07:20:15;6.63;;;4.45;;
20110;SDS011;10216;42.658;23.248;2022-07-22T07:22:40;8.25;;;4.00;;
20110;SDS011;10216;42.658;23.248;2022-07-22T07:25:06;6.45;;;3.95;;
20110;SDS011;10216;42.658;23.248;2022-07-22T07:27:35;5.60;;;3.33;;
20110;SDS011;10216;42.658;23.248;2022-07-22T07:30:02;7.13;;;3.60;;
20110;SDS011;10216;42.658;23.248;2022-07-22T07:32:28;6.03;;;3.97;;
20110;SDS011;10216;42.658;23.248;2022-07-22T07:34:54;7.40;;;4.47;;
20110;SDS011;10216;42.658;23.248;2022-07-22T07:37:19;7.53;;;4.38;;
20110;SDS011;10216;42.658;23.248;2022-07-22T07:39:45;6.70;;;3.88;;
20110;SDS011;10216;42.658;23.248;2022-07-22T07:42:10;8.32;;;3.85;;
20110;SDS011;10216;42.658;23.248;2022-07-22T07:44:36;7.70;;;3.80;;
20110;SDS011;10216;42.658;23.248;2022-07-22T07:47:01;5.53;;;3.85;;
20110;SDS011;10216;42.658;23.248;2022-07-22T07:49:29;6.95;;;3.50;;
20110;SDS011;10216;42.658;23.248;2022-07-22T07:51:55;5.45;;;3.05;;
20110;SDS011;10216;42.658;23.248;2022-07-22T07:54:20;4.82;;;3.42;;
20110;SDS011;10216;42.658;23.248;2022-07-22T07:56:45;4.32;;;3.10;;
20110;SDS011;10216;42.658;23.248;2022-07-22T07:59:11;6.60;;;3.40;;
20110;SDS011;10216;42.658;23.248;2022-07-22T08:01:36;5.53;;;3.42;;
20110;SDS011;10216;42.658;23.248;2022-07-22T08:04:02;5.82;;;3.30;;
20110;SDS011;10216;42.658;23.248;2022-07-22T08:06:27;6.35;;;3.70;;
20110;SDS011;10216;42.658;23.248;2022-07-22T08:08:53;3.90;;;3.20;;
20110;SDS011;10216;42.658;23.248;2022-07-22T08:11:18;6.07;;;3.10;;
20110;SDS011;10216;42.658;23.248;2022-07-22T08:13:44;3.38;;;3.08;;
20110;SDS011;10216;42.658;23.248;2022-07-22T08:16:09;3.95;;;3.40;;
20110;SDS011;10216;42.658;23.248;2022-07-22T08:18:35;5.18;;;3.20;;
20110;SDS011;10216;42.658;23.248;2022-07-22T08:21:03;5.15;;;3.67;;
20110;SDS011;10216;42.658;23.248;2022-07-22T08:23:29;6.93;;;3.80;;
20110;SDS011;10216;42.658;23.248;2022-07-22T08:25:54;5.18;;;2.83;;
20110;SDS011;10216;42.658;23.248;2022-07-22T08:28:19;5.38;;;3.40;;
20110;SDS011;10216;42.658;23.248;2022-07-22T08:30:45;5.90;;;3.70;;
20110;SDS011;10216;42.658;23.248;2022-07-22T08:33:10;4.53;;;3.40;;
20110;SDS011;10216;42.658;23.248;2022-07-22T08:35:36;6.78;;;3.67;;
20110;SDS011;10216;42.658;23.248;2022-07-22T08:38:02;6.90;;;3.95;;
20110;SDS011;10216;42.658;23.248;2022-07-22T08:40:27;8.50;;;3.83;;
20110;SDS011;10216;42.658;23.248;2022-07-22T08:42:53;7.38;;;3.45;;
20110;SDS011;10216;42.658;23.248;2022-07-22T08:45:18;5.75;;;4.07;;
20110;SDS011;10216;42.658;23.248;2022-07-22T08:47:45;6.13;;;3.63;;
20110;SDS011;10216;42.658;23.248;2022-07-22T08:50:15;7.72;;;3.85;;
20110;SDS011;10216;42.658;23.248;2022-07-22T08:52:41;7.32;;;3.47;;
20110;SDS011;10216;42.658;23.248;2022-07-22T08:55:07;8.68;;;3.58;;
20110;SDS011;10216;42.658;23.248;2022-07-22T08:57:33;5.10;;;3.53;;
20110;SDS011;10216;42.658;23.248;2022-07-22T09:00:03;5.80;;;3.85;;
20110;SDS011;10216;42.658;23.248;2022-07-22T09:02:36;6.05;;;3.85;;
20110;SDS011;10216;42.658;23.248;2022-07-22T09:05:04;5.25;;;3.60;;
20110;SDS011;10216;42.658;23.248;2022-07-22T09:07:31;7.32;;;3.95;;
20110;SDS011;10216;42.658;23.248;2022-07-22T09:09:59;6.05;;;4.10;;
20110;SDS011;10216;42.658;23.248;2022-07-22T09:12:25;4.72;;;3.70;;
20110;SDS011;10216;42.658;23.248;2022-07-22T09:14:53;5.13;;;3.35;;
20110;SDS011;10216;42.658;23.248;2022-07-22T09:17:30;4.03;;;3.63;;
20110;SDS011;10216;42.658;23.248;2022-07-22T09:19:58;6.75;;;3.88;;
20110;SDS011;10216;42.658;23.248;2022-07-22T09:22:31;6.07;;;3.88;;
20110;SDS011;10216;42.658;23.248;2022-07-22T09:25:16;5.40;;;3.45;;
20110;SDS011;10216;42.658;23.248;2022-07-22T09:27:47;4.55;;;3.65;;
20110;SDS011;10216;42.658;23.248;2022-07-22T09:30:18;5.68;;;4.10;;
20110;SDS011;10216;42.658;23.248;2022-07-22T09:32:46;4.50;;;3.65;;
20110;SDS011;10216;42.658;23.248;2022-07-22T09:35:13;4.70;;;3.63;;
20110;SDS011;10216;42.658;23.248;2022-07-22T09:40:25;4.80;;;3.47;;
20110;SDS011;10216;42.658;23.248;2022-07-22T09:42:56;9.98;;;3.95;;
20110;SDS011;10216;42.658;23.248;2022-07-22T09:45:24;5.38;;;3.72;;
20110;SDS011;10216;42.658;23.248;2022-07-22T09:47:53;5.57;;;3.42;;
20110;SDS011;10216;42.658;23.248;2022-07-22T09:50:20;4.65;;;3.58;;
20110;SDS011;10216;42.658;23.248;2022-07-22T09:52:59;4.75;;;3.42;;
20110;SDS011;10216;42.658;23.248;2022-07-22T09:55:26;4.78;;;3.92;;
20110;SDS011;10216;42.658;23.248;2022-07-22T09:57:53;5.03;;;3.78;;
20110;SDS011;10216;42.658;23.248;2022-07-22T10:00:20;6.38;;;3.88;;
20110;SDS011;10216;42.658;23.248;2022-07-22T10:02:52;6.53;;;3.70;;
20110;SDS011;10216;42.658;23.248;2022-07-22T10:05:25;7.00;;;5.35;;
20110;SDS011;10216;42.658;23.248;2022-07-22T10:07:53;4.00;;;3.67;;
20110;SDS011;10216;42.658;23.248;2022-07-22T10:10:21;5.43;;;3.78;;
20110;SDS011;10216;42.658;23.248;2022-07-22T10:12:52;4.80;;;3.70;;
20110;SDS011;10216;42.658;23.248;2022-07-22T10:15:19;4.90;;;3.47;;
20110;SDS011;10216;42.658;23.248;2022-07-22T10:17:47;4.85;;;3.88;;
20110;SDS011;10216;42.658;23.248;2022-07-22T10:20:18;6.93;;;3.60;;
20110;SDS011;10216;42.658;23.248;2022-07-22T10:22:47;4.45;;;3.78;;
20110;SDS011;10216;42.658;23.248;2022-07-22T10:25:19;7.18;;;4.88;;
20110;SDS011;10216;42.658;23.248;2022-07-22T10:27:49;4.88;;;4.03;;
20110;SDS011;10216;42.658;23.248;2022-07-22T10:30:28;4.90;;;3.47;;
20110;SDS011;10216;42.658;23.248;2022-07-22T10:35:28;4.22;;;3.53;;
20110;SDS011;10216;42.658;23.248;2022-07-22T10:37:54;3.65;;;3.20;;
20110;SDS011;10216;42.658;23.248;2022-07-22T10:40:23;6.55;;;3.58;;
20110;SDS011;10216;42.658;23.248;2022-07-22T10:45:23;5.60;;;3.25;;
20110;SDS011;10216;42.658;23.248;2022-07-22T10:47:53;4.72;;;3.38;;
20110;SDS011;10216;42.658;23.248;2022-07-22T10:53:00;5.38;;;3.60;;
20110;SDS011;10216;42.658;23.248;2022-07-22T10:55:29;5.38;;;4.20;;
20110;SDS011;10216;42.658;23.248;2022-07-22T10:57:54;3.50;;;3.28;;
20110;SDS011;10216;42.658;23.248;2022-07-22T11:00:20;5.65;;;3.63;;
20110;SDS011;10216;42.658;23.248;2022-07-22T11:02:46;5.80;;;3.63;;
20110;SDS011;10216;42.658;23.248;2022-07-22T11:05:11;6.70;;;3.30;;
20110;SDS011;10216;42.658;23.248;2022-07-22T11:07:43;5.10;;;3.67;;
20110;SDS011;10216;42.658;23.248;2022-07-22T11:10:10;5.43;;;3.45;;
20110;SDS011;10216;42.658;23.248;2022-07-22T11:12:39;4.32;;;4.00;;
20110;SDS011;10216;42.658;23.248;2022-07-22T11:15:05;4.30;;;3.50;;
20110;SDS011;10216;42.658;23.248;2022-07-22T11:17:31;3.63;;;3.22;;
20110;SDS011;10216;42.658;23.248;2022-07-22T11:20:00;5.88;;;3.95;;
20110;SDS011;10216;42.658;23.248;2022-07-22T11:22:27;5.45;;;3.55;;
20110;SDS011;10216;42.658;23.248;2022-07-22T11:24:53;4.97;;;3.10;;
20110;SDS011;10216;42.658;23.248;2022-07-22T11:27:18;3.67;;;3.30;;
20110;SDS011;10216;42.658;23.248;2022-07-22T11:29:50;4.85;;;3.40;;
20110;SDS011;10216;42.658;23.248;2022-07-22T11:32:17;4.60;;;3.40;;
20110;SDS011;10216;42.658;23.248;2022-07-22T11:34:45;3.85;;;2.85;;
20110;SDS011;10216;42.658;23.248;2022-07-22T11:37:15;4.20;;;3.20;;
20110;SDS011;10216;42.658;23.248;2022-07-22T11:39:42;6.53;;;3.10;;
20110;SDS011;10216;42.658;23.248;2022-07-22T11:42:08;4.75;;;3.30;;
20110;SDS011;10216;42.658;23.248;2022-07-22T11:44:36;4.65;;;3.60;;
20110;SDS011;10216;42.658;23.248;2022-07-22T11:47:02;4.85;;;3.30;;
20110;SDS011;10216;42.658;23.248;2022-07-22T11:49:33;4.40;;;3.00;;
20110;SDS011;10216;42.658;23.248;2022-07-22T11:52:00;4.97;;;3.28;;
20110;SDS011;10216;42.658;23.248;2022-07-22T11:54:26;4.72;;;3.25;;
20110;SDS011;10216;42.658;23.248;2022-07-22T11:56:52;5.40;;;3.15;;
20110;SDS011;10216;42.658;23.248;2022-07-22T11:59:18;3.40;;;3.10;;
20110;SDS011;10216;42.658;23.248;2022-07-22T12:01:45;4.22;;;3.30;;
20110;SDS011;10216;42.658;23.248;2022-07-22T12:04:16;3.30;;;3.00;;
20110;SDS011;10216;42.658;23.248;2022-07-22T12:06:43;3.63;;;3.30;;
20110;SDS011;10216;42.658;23.248;2022-07-22T12:09:12;4.43;;;3.38;;
20110;SDS011;10216;42.658;23.248;2022-07-22T12:11:41;5.75;;;3.50;;
20110;SDS011;10216;42.658;23.248;2022-07-22T12:14:14;4.30;;;3.50;;
20110;SDS011;10216;42.658;23.248;2022-07-22T12:16:44;5.43;;;3.33;;
20110;SDS011;10216;42.658;23.248;2022-07-22T12:19:19;4.88;;;3.65;;
20110;SDS011;10216;42.658;23.248;2022-07-22T12:24:28;7.05;;;3.70;;
20110;SDS011;10216;42.658;23.248;2022-07-22T12:26:57;4.13;;;3.28;;
20110;SDS011;10216;42.658;23.248;2022-07-22T12:32:03;5.97;;;3.90;;
20110;SDS011;10216;42.658;23.248;2022-07-22T12:34:31;7.38;;;3.80;;
20110;SDS011;10216;42.658;23.248;2022-07-22T12:37:15;4.70;;;3.90;;
20110;SDS011;10216;42.658;23.248;2022-07-22T12:42:21;6.72;;;3.75;;
20110;SDS011;10216;42.658;23.248;2022-07-22T12:45:03;3.95;;;3.53;;
20110;SDS011;10216;42.658;23.248;2022-07-22T12:53:12;5.78;;;3.63;;
20110;SDS011;10216;42.658;23.248;2022-07-22T12:58:13;9.63;;;4.10;;
20110;SDS011;10216;42.658;23.248;2022-07-22T13:00:43;8.40;;;5.75;;
20110;SDS011;10216;42.658;23.248;2022-07-22T13:03:11;7.70;;;3.80;;
20110;SDS011;10216;42.658;23.248;2022-07-22T13:05:36;6.05;;;3.92;;
20110;SDS011;10216;42.658;23.248;2022-07-22T13:08:02;4.97;;;3.50;;
20110;SDS011;10216;42.658;23.248;2022-07-22T13:10:28;7.63;;;4.85;;
20110;SDS011;10216;42.658;23.248;2022-07-22T13:12:54;6.22;;;3.88;;
20110;SDS011;10216;42.658;23.248;2022-07-22T13:15:20;7.93;;;4.90;;
20110;SDS011;10216;42.658;23.248;2022-07-22T13:17:46;6.72;;;3.70;;
20110;SDS011;10216;42.658;23.248;2022-07-22T13:20:12;4.18;;;3.40;;
20110;SDS011;10216;42.658;23.248;2022-07-22T13:22:40;8.15;;;3.60;;
20110;SDS011;10216;42.658;23.248;2022-07-22T13:25:06;8.45;;;4.43;;
20110;SDS011;10216;42.658;23.248;2022-07-22T13:27:35;5.05;;;3.55;;
20110;SDS011;10216;42.658;23.248;2022-07-22T13:30:00;4.40;;;3.65;;
20110;SDS011;10216;42.658;23.248;2022-07-22T13:32:26;6.68;;;4.70;;
20110;SDS011;10216;42.658;23.248;2022-07-22T13:34:52;4.72;;;3.20;;
20110;SDS011;10216;42.658;23.248;2022-07-22T13:37:19;6.68;;;3.40;;
20110;SDS011;10216;42.658;23.248;2022-07-22T13:39:45;5.22;;;3.40;;
20110;SDS011;10216;42.658;23.248;2022-07-22T13:42:12;4.15;;;3.33;;
20110;SDS011;10216;42.658;23.248;2022-07-22T13:44:38;4.22;;;3.58;;
20110;SDS011;10216;42.658;23.248;2022-07-22T13:47:03;5.10;;;3.80;;
20110;SDS011;10216;42.658;23.248;2022-07-22T13:49:28;4.70;;;3.80;;
20110;SDS011;10216;42.658;23.248;2022-07-22T13:51:54;4.97;;;3.20;;
20110;SDS011;10216;42.658;23.248;2022-07-22T13:54:19;5.55;;;3.78;;
20110;SDS011;10216;42.658;23.248;2022-07-22T13:56:45;8.43;;;4.18;;
20110;SDS011;10216;42.658;23.248;2022-07-22T13:59:14;6.75;;;4.57;;
20110;SDS011;10216;42.658;23.248;2022-07-22T14:01:41;8.27;;;4.45;;
20110;SDS011;10216;42.658;23.248;2022-07-22T14:04:07;6.88;;;4.05;;
20110;SDS011;10216;42.658;23.248;2022-07-22T14:06:33;5.35;;;4.10;;
20110;SDS011;10216;42.658;23.248;2022-07-22T14:08:58;5.78;;;3.90;;
20110;SDS011;10216;42.658;23.248;2022-07-22T14:11:26;4.28;;;3.72;;
20110;SDS011;10216;42.658;23.248;2022-07-22T14:13:52;4.90;;;3.75;;
20110;SDS011;10216;42.658;23.248;2022-07-22T14:16:18;4.63;;;3.75;;
20110;SDS011;10216;42.658;23.248;2022-07-22T14:18:58;4.28;;;3.85;;
20110;SDS011;10216;42.658;23.248;2022-07-22T14:21:29;3.58;;;3.17;;
20110;SDS011;10216;42.658;23.248;2022-07-22T14:23:54;5.72;;;3.88;;
20110;SDS011;10216;42.658;23.248;2022-07-22T14:26:20;6.32;;;3.83;;
20110;SDS011;10216;42.658;23.248;2022-07-22T14:28:45;7.88;;;3.58;;
20110;SDS011;10216;42.658;23.248;2022-07-22T14:31:11;5.30;;;3.92;;
20110;SDS011;10216;42.658;23.248;2022-07-22T14:33:38;5.82;;;4.40;;
20110;SDS011;10216;42.658;23.248;2022-07-22T14:36:04;5.65;;;4.55;;
20110;SDS011;10216;42.658;23.248;2022-07-22T14:38:29;8.52;;;4.63;;
20110;SDS011;10216;42.658;23.248;2022-07-22T14:40:55;5.47;;;4.22;;
20110;SDS011;10216;42.658;23.248;2022-07-22T14:43:20;6.93;;;4.70;;
20110;SDS011;10216;42.658;23.248;2022-07-22T14:45:46;9.52;;;4.53;;
20110;SDS011;10216;42.658;23.248;2022-07-22T14:48:11;4.97;;;3.85;;
20110;SDS011;10216;42.658;23.248;2022-07-22T14:50:36;6.30;;;3.75;;
20110;SDS011;10216;42.658;23.248;2022-07-22T14:53:02;6.18;;;4.30;;
20110;SDS011;10216;42.658;23.248;2022-07-22T14:55:27;5.00;;;4.50;;
20110;SDS011;10216;42.658;23.248;2022-07-22T14:57:53;5.53;;;4.72;;
20110;SDS011;10216;42.658;23.248;2022-07-22T15:00:18;5.53;;;4.15;;